Date,TemperatureHighF,TemperatureAvgF,TemperatureLowF,DewpointHighF,DewpointAvgF,DewpointLowF,HumidityHigh,HumidityAvg,HumidityLow,PressureMaxIn,PressureMinIn,WindSpeedMaxMPH,WindSpeedAvgMPH,GustSpeedMaxMPH,PrecipitationSumIn
2013-1-1,134.6,37.2,28.8,29.6,25.8,-27.3,76,63,52,29.97,28.33,40,6,40,20.48
2013-1-2,76.0,27.2,23.1,16.6,14.3,-28.1,65,58,51,30.14,24.67,27,7,27,0.16
2013-1-3,40.8,28.0,23.8,19.8,16.6,-51.5,73,62,50,30.15,24.77,133,4,133,20.48
2013-1-4,36.4,32.4,2.8,22.7,21.1,-19.9,74,63,55,30.09,24.19,28,7,28,10.24
2013-1-5,41.2,34.0,29.9,23.3,21.1,-10.8,71,59,47,30.25,24.70,25,6,25,0.64
2013-1-6,89.4,37.3,31.0,34.5,28.8,-6.7,99,73,53,30.19,24.88,17,3,17,0.03
2013-1-7,132.8,38.0,29.9,29.8,25.6,-4.2,76,62,43,30.53,27.00,32,4,32,0.56
2013-1-8,48.9,37.0,27.7,32.5,28.6,-45.0,87,73,52,30.52,24.28,127,3,127,20.48
2013-1-9,98.6,42.1,30.9,39.4,34.3,-27.7,96,75,53,30.34,24.20,64,3,64,10.24
2013-1-10,48.5,42.8,36.4,31.0,25.8,-14.1,66,51,40,30.48,30.20,26,6,26,0.02
2013-1-11,139.6,41.8,34.9,46.4,36.0,-15.2,100,81,58,30.47,24.23,130,3,130,8.98
2013-1-12,146.1,44.8,42.7,47.5,44.8,0.0,100,100,100,30.19,24.80,68,4,68,5.12
2013-1-13,146.3,46.5,40.7,51.6,46.0,0.0,100,98,84,30.10,29.49,69,3,69,0.01
2013-1-14,149.4,51.6,37.9,56.4,45.2,-22.5,100,81,43,30.23,26.87,20,6,20,20.49
2013-1-15,138.5,37.1,34.9,37.9,30.8,-5.4,99,79,63,30.28,24.91,128,5,128,0.25
2013-1-16,135.7,35.3,32.8,37.8,35.2,-0.6,100,100,90,30.20,24.69,67,4,67,21.42
2013-1-17,139.4,38.5,36.1,36.9,30.9,-4.1,97,75,57,30.09,24.66,68,4,68,2.56
2013-1-18,36.9,29.3,24.6,27.1,14.1,-45.6,71,53,38,30.44,24.19,64,7,64,10.24
2013-1-19,79.2,39.3,25.5,27.9,23.1,-24.4,72,53,35,30.37,24.30,30,8,30,1.28
2013-1-20,54.0,43.1,31.1,29.5,23.7,0.2,63,48,25,29.99,24.44,40,10,40,0.02
2013-1-21,32.4,28.5,25.3,26.9,16.0,-42.8,98,60,42,30.05,24.51,20,5,20,5.12
2013-1-22,126.1,17.9,11.8,15.5,1.4,-23.2,65,48,37,30.18,24.54,32,12,32,10.24
2013-1-23,34.8,12.8,8.1,5.4,-0.0,-57.9,77,56,43,30.23,24.86,24,6,24,20.48
2013-1-24,68.7,15.7,8.4,6.2,2.4,-56.0,85,58,32,30.37,24.20,36,9,36,5.12
2013-1-25,24.1,16.4,11.5,16.6,6.2,-49.9,96,65,2,30.40,24.19,22,5,26,1.29
2013-1-26,125.0,19.0,11.5,13.9,9.6,-27.9,96,69,45,30.34,24.19,26,8,26,10.24
2013-1-27,69.0,24.5,16.2,15.3,11.7,-8.9,69,58,44,31.21,24.34,23,5,23,5.12
2013-1-28,35.9,30.0,21.9,35.6,26.4,-10.6,100,87,66,30.58,24.31,131,3,131,0.09
2013-1-29,52.2,42.5,34.7,46.6,40.3,5.6,100,93,68,30.09,24.67,32,3,32,0.00
2013-1-30,148.6,55.4,44.1,59.3,51.6,4.9,100,88,69,30.01,24.59,68,9,68,0.64
2013-1-31,61.7,44.6,28.6,59.8,31.2,-12.1,98,61,37,29.78,28.25,140,16,140,11.70
2013-2-1,30.0,27.3,22.3,18.9,10.9,-34.7,75,50,38,30.20,24.50,76,10,76,10.24
2013-2-2,29.2,23.4,16.8,21.5,9.2,-21.0,90,55,38,30.28,24.19,69,6,69,5.12
2013-2-3,30.2,25.5,21.6,23.3,21.0,-11.5,99,84,66,30.00,24.62,32,1,32,1.29
2013-2-4,28.9,25.3,20.9,24.3,13.0,-12.3,95,60,45,29.95,24.64,27,3,27,0.00
2013-2-5,33.0,29.8,25.4,31.9,28.4,-3.0,99,95,84,29.92,24.56,16,2,16,0.02
2013-2-6,137.6,33.0,28.2,31.3,23.8,-44.9,99,72,47,30.39,24.58,28,6,28,0.01
2013-2-7,37.8,29.5,22.8,33.2,16.7,-12.7,83,59,46,31.16,24.22,18,3,18,0.08
2013-2-8,135.2,35.7,27.8,40.5,34.7,-5.1,100,96,83,30.23,24.32,64,7,64,14.74
2013-2-9,51.2,27.5,20.7,29.9,17.6,-4.1,100,69,39,30.37,24.20,36,9,133,0.02
2013-2-10,38.5,25.3,13.8,22.8,13.0,-34.4,79,61,28,30.43,24.27,16,4,16,10.36
2013-2-11,53.3,42.5,26.1,53.3,41.4,21.5,100,96,75,30.29,29.59,18,5,24,0.35
2013-2-12,44.2,39.9,31.5,43.0,26.7,-3.9,98,60,46,29.92,24.44,38,9,38,10.24
2013-2-13,41.7,34.5,25.7,33.1,26.4,-2.7,100,73,52,29.91,24.57,11,2,38,7.08
2013-2-14,45.6,36.5,32.1,35.4,32.3,-14.4,100,87,50,29.97,24.47,13,3,13,2.26
2013-2-15,55.9,42.4,32.2,37.7,33.1,-3.4,99,73,38,29.98,24.60,131,4,131,0.16
2013-2-16,42.8,35.4,30.3,35.2,28.0,-22.7,98,76,54,29.90,24.43,24,5,24,0.02
2013-2-17,30.6,26.4,18.0,16.7,7.2,-16.0,56,44,34,29.99,28.42,40,14,41,0.32
2013-2-18,34.9,24.9,15.6,13.1,6.6,-11.3,53,45,35,30.20,24.70,36,9,36,3.68
2013-2-19,51.4,39.5,28.9,46.0,31.1,-40.5,100,73,45,30.17,27.04,33,7,33,2.77
2013-2-20,37.7,29.5,24.4,26.3,14.1,-52.5,66,52,45,29.96,24.62,36,10,36,3.89
2013-2-21,74.7,27.5,22.4,16.1,13.5,-22.5,65,55,46,30.22,24.67,40,11,40,3.90
2013-2-22,37.4,30.5,22.5,33.6,23.4,-16.1,91,75,64,31.01,24.19,127,2,127,5.12
2013-2-23,45.6,39.8,35.5,45.2,39.8,3.1,100,100,91,30.20,24.20,26,4,26,8.18
2013-2-24,46.1,38.0,31.7,38.0,31.3,-0.1,100,78,52,29.94,24.44,33,8,33,20.48
2013-2-25,81.0,36.2,28.9,27.6,24.7,-9.8,77,63,50,30.18,24.68,64,5,64,0.04
2013-2-26,133.9,36.1,26.8,38.5,30.6,-0.5,100,81,63,30.22,24.89,34,4,34,1.14
2013-2-27,50.9,44.9,38.4,50.3,41.7,-27.8,100,89,65,29.78,29.42,64,3,64,6.26
2013-2-28,47.5,42.1,36.1,38.3,32.7,-31.0,87,70,51,29.58,24.25,36,4,36,5.31
2013-3-1,43.5,38.0,32.8,31.7,28.2,13.6,90,69,49,29.77,29.49,23,7,23,1.38
2013-3-2,135.4,34.4,29.8,25.8,23.2,0.0,75,63,54,29.74,24.39,72,4,72,10.28
2013-3-3,35.7,31.3,27.6,22.7,19.3,-18.7,75,61,50,29.72,26.64,27,4,27,20.53
2013-3-4,84.2,32.8,26.5,21.6,18.8,-50.0,68,57,44,29.87,24.44,33,10,33,2.62
2013-3-5,142.6,36.4,29.6,32.3,24.1,-11.5,90,62,43,29.95,24.64,42,6,42,20.49
2013-3-6,39.7,37.5,34.0,36.8,32.7,-37.2,96,83,73,29.90,24.47,48,11,48,0.21
2013-3-7,37.7,34.8,32.6,35.4,31.7,0.0,100,89,73,30.02,24.55,44,12,44,0.75
2013-3-8,40.7,33.5,29.4,35.7,31.3,-5.3,100,93,66,30.12,26.92,64,6,64,20.55
2013-3-9,137.7,41.9,30.6,31.1,23.0,-3.4,98,51,22,30.28,24.20,22,6,22,5.12
2013-3-10,44.7,37.1,30.1,36.3,33.5,-2.0,100,88,66,31.03,24.26,15,3,15,0.00
2013-3-11,54.2,43.9,33.1,49.6,41.5,0.0,100,92,68,30.26,24.20,32,1,32,0.32
2013-3-12,56.9,52.0,22.6,56.7,48.9,17.3,100,90,70,30.04,24.64,30,4,32,0.73
2013-3-13,48.5,41.8,37.0,38.0,29.7,0.0,82,64,37,29.85,26.82,30,4,30,0.08
2013-3-14,40.3,34.6,29.6,25.4,14.8,-11.6,64,45,32,29.92,24.58,137,12,142,10.24
2013-3-15,48.1,37.7,28.3,28.1,18.8,-36.0,58,46,38,29.95,24.64,28,8,137,0.32
2013-3-16,45.4,35.7,31.7,33.1,28.5,-8.2,100,77,51,29.87,24.54,132,3,132,0.02
2013-3-17,37.3,32.6,28.6,33.4,22.3,-37.4,100,68,46,30.24,24.94,24,6,132,0.08
2013-3-18,37.4,33.1,28.7,37.4,25.2,-10.7,100,74,50,30.33,24.25,24,4,25,10.50
2013-3-19,47.7,39.7,36.2,38.3,34.1,-47.1,100,83,38,29.89,24.38,37,4,37,5.78
2013-3-20,45.1,37.8,31.3,21.8,18.3,-24.6,60,46,32,29.86,24.47,29,6,37,0.00
2013-3-21,38.3,32.4,28.9,27.9,20.9,-39.1,90,64,39,29.76,24.44,133,6,133,2.56
2013-3-22,39.9,32.9,26.5,21.5,18.2,-40.0,69,55,41,29.85,24.42,32,6,133,0.00
2013-3-23,44.3,36.7,28.6,21.8,19.7,0.1,70,51,36,29.89,29.49,25,8,39,0.00
2013-3-24,44.4,37.1,29.8,27.2,21.1,-29.1,70,53,39,29.90,24.58,23,4,39,0.08
2013-3-25,137.6,34.9,32.1,35.7,32.0,-0.1,100,90,52,29.65,24.31,25,1,25,0.78
2013-3-26,137.4,41.0,33.3,35.9,30.7,-18.5,100,70,38,29.82,24.30,127,1,127,0.01
2013-3-27,50.0,41.6,34.2,30.3,27.2,-29.8,72,58,36,29.95,24.64,30,4,127,0.02
2013-3-28,47.4,41.5,34.4,31.6,28.8,-37.5,79,61,46,30.06,24.63,25,2,30,0.64
2013-3-29,92.1,44.6,26.8,77.1,27.5,3.0,70,52,35,30.11,27.04,34,4,34,0.00
2013-3-30,56.7,46.4,26.0,31.5,25.3,-2.1,72,47,22,30.12,27.06,35,4,35,0.00
2013-3-31,54.9,44.8,35.9,47.1,35.3,-7.2,100,72,36,30.09,24.34,28,5,35,20.80
2013-4-1,61.0,48.9,37.5,47.9,36.6,-7.8,100,67,32,29.86,26.63,31,4,64,0.64
2013-4-2,42.5,36.9,30.8,16.4,13.5,-40.2,55,38,28,30.04,24.63,28,4,64,0.02
2013-4-3,44.4,37.4,31.1,16.2,13.5,-9.2,49,38,26,30.24,24.94,73,9,74,5.12
2013-4-4,50.2,38.8,29.0,28.2,20.1,0.0,64,47,30,30.34,24.20,22,6,74,0.00
2013-4-5,66.2,46.6,37.0,37.9,27.3,-7.5,100,55,17,30.05,29.51,30,7,30,0.05
2013-4-6,48.1,39.8,34.3,28.2,20.5,2.8,70,47,24,30.27,26.94,38,9,38,0.00
2013-4-7,58.0,47.0,35.6,42.9,34.2,-6.7,79,62,39,30.26,24.69,29,8,68,5.12
2013-4-8,70.0,58.2,49.7,44.7,42.4,-5.9,77,58,35,30.02,29.92,20,5,68,0.00
2013-4-11,148.5,46.9,44.3,48.0,44.4,36.2,95,91,85,29.95,24.65,127,4,127,1.14
2013-4-12,44.9,42.4,40.8,44.6,42.1,40.2,100,99,86,29.93,29.63,25,1,29,0.59
2013-4-13,92.8,46.9,39.8,45.1,40.0,23.7,100,80,42,29.93,24.56,24,2,24,0.46
2013-4-14,58.7,49.5,40.8,45.1,34.9,-14.8,100,63,31,30.15,29.38,130,5,130,0.40
2013-4-15,53.2,47.4,41.7,43.6,34.1,-30.4,93,61,44,30.39,24.86,67,4,67,0.02
2013-4-16,65.8,55.9,44.5,52.3,48.4,41.7,95,77,59,30.31,27.07,21,6,24,0.00
2013-4-17,68.6,58.9,49.9,56.3,44.9,-29.9,98,63,23,30.23,24.92,133,4,133,0.01
2013-4-18,57.8,51.8,44.7,57.3,46.1,1.8,100,82,62,30.27,29.48,22,6,22,10.24
2013-4-19,91.0,64.8,56.2,62.9,59.1,5.4,100,83,60,30.03,29.53,138,8,138,0.03
2013-4-20,64.2,51.3,47.1,62.8,34.7,-8.3,97,57,31,30.23,26.65,38,10,138,3.22
2013-4-21,51.2,42.2,35.5,29.8,23.6,-3.4,73,48,32,31.02,30.23,32,7,38,0.00
2013-4-22,139.6,41.9,33.9,38.6,33.1,-50.2,89,71,58,30.57,24.38,66,7,66,0.00
2013-4-23,49.0,43.5,39.6,41.6,38.1,-47.1,100,82,73,30.41,24.31,25,8,66,1.29
2013-4-24,69.9,53.7,38.5,51.3,44.3,-11.2,95,73,43,30.05,26.79,130,6,130,0.00
2013-4-25,62.2,52.6,45.1,52.5,33.0,-15.4,84,50,8,30.22,26.85,140,8,140,2.56
2013-4-26,65.9,52.4,41.1,36.2,31.6,19.7,78,48,22,30.35,24.28,20,5,140,1.60
2013-4-27,64.1,53.1,40.1,35.5,30.6,17.9,76,45,23,30.36,24.29,16,4,20,10.24
2013-4-28,65.3,54.4,40.6,44.1,33.8,-15.8,80,49,21,30.26,24.88,64,5,64,0.02
2013-4-29,55.4,52.6,50.0,99.9,49.0,0.0,98,87,68,30.18,24.88,24,6,64,10.35
2013-4-30,60.5,53.5,45.6,49.9,41.0,12.2,98,66,28,30.27,24.85,21,5,24,1.29
2013-5-1,60.2,51.2,42.6,43.4,39.7,-12.0,90,67,38,30.42,24.22,23,5,23,5.12
2013-5-2,65.3,53.8,40.2,48.0,40.6,-8.1,100,65,34,30.41,24.31,15,4,23,0.02
2013-5-3,56.4,50.6,42.0,46.6,40.4,33.5,96,69,45,30.39,30.30,15,5,21,0.00
2013-5-4,59.4,49.4,16.4,46.9,40.9,4.8,100,76,43,30.31,24.26,64,5,64,0.64
2013-5-5,54.4,47.4,40.7,44.7,39.7,-8.7,97,75,59,30.23,24.89,67,4,67,0.02
2013-5-6,59.2,51.2,26.4,51.3,46.9,18.7,100,86,64,30.20,24.86,16,4,67,2.56
2013-5-7,64.0,54.7,48.0,58.9,53.1,18.4,100,95,73,30.11,24.74,18,3,18,1.33
2013-5-8,68.5,59.4,7.4,63.2,56.2,6.5,100,90,55,30.03,28.44,20,5,20,2.26
2013-5-9,68.0,59.4,53.3,59.5,53.5,-30.3,100,83,55,29.95,29.49,16,3,16,10.32
2013-5-10,79.1,64.7,53.5,59.3,53.9,0.0,100,71,34,29.95,26.80,64,4,64,10.29
2013-5-11,74.1,63.9,12.8,64.8,61.0,6.2,100,91,61,29.85,24.20,21,4,21,20.50
2013-5-12,64.8,58.8,50.1,63.7,41.4,-4.9,100,57,22,29.91,24.34,39,7,39,20.51
2013-5-13,146.9,48.4,40.4,34.3,28.9,-11.4,72,48,31,30.05,24.63,134,7,134,0.17
2013-5-14,59.2,47.9,37.4,35.2,28.6,-18.2,79,51,23,30.08,24.73,32,6,32,0.34
2013-5-15,72.3,59.6,44.9,55.9,46.8,5.9,79,63,44,30.03,24.72,132,5,132,0.01
2013-5-16,78.0,66.9,58.7,59.4,53.1,-4.3,94,64,35,29.78,24.36,130,4,130,0.01
2013-5-17,70.7,63.2,54.1,58.0,39.7,-9.5,79,43,26,30.14,24.83,127,6,127,5.12
2013-5-18,63.9,56.3,50.5,56.7,50.7,3.3,98,82,61,30.25,29.48,65,3,65,5.12
2013-5-19,58.7,56.0,53.7,58.5,56.0,0.0,100,100,98,30.24,24.94,64,5,64,0.05
2013-5-20,96.2,65.8,56.8,69.0,62.5,5.7,100,90,59,30.12,24.74,16,2,16,2.56
2013-5-21,83.0,72.7,63.0,69.5,64.2,14.1,100,78,50,29.92,29.78,14,4,15,0.00
2013-5-22,84.2,72.2,65.2,70.8,66.4,14.5,100,84,52,29.86,28.28,130,4,130,5.13
2013-5-23,79.8,70.4,64.5,69.2,64.8,2.5,100,84,56,29.84,29.48,26,7,26,2.56
2013-5-24,65.9,54.8,42.5,64.5,53.0,0.0,100,94,75,29.92,24.35,37,8,37,0.00
2013-5-25,57.2,49.2,41.5,43.9,38.6,0.0,98,70,42,29.97,24.68,42,13,42,0.01
2013-5-26,66.2,56.2,45.7,37.9,34.0,-13.8,71,45,24,30.21,24.66,73,9,73,0.00
2013-5-27,71.1,57.8,39.9,43.5,36.8,-28.6,85,50,25,30.21,24.90,17,3,17,0.00
2013-5-28,65.9,58.2,49.0,61.4,52.9,22.2,100,84,54,30.18,24.77,18,2,18,0.50
2013-5-29,86.0,71.2,57.7,68.4,60.5,7.0,100,74,39,30.07,24.68,127,3,127,1.62
2013-5-30,97.2,78.9,67.6,66.0,60.6,13.4,86,57,30,30.22,29.27,15,4,15,0.02
2013-5-31,90.8,79.2,66.8,67.9,59.9,0.0,96,56,20,30.07,24.19,16,4,16,0.00
2013-6-1,88.0,77.4,66.6,65.1,62.0,55.6,90,62,36,29.97,29.84,20,5,20,0.00
2013-6-2,86.1,76.0,68.3,69.1,64.2,2.2,95,68,45,29.87,29.01,34,7,34,0.23
2013-6-3,76.4,69.2,64.7,70.8,66.5,21.6,100,92,66,29.81,24.19,130,3,130,5.25
2013-6-4,72.3,63.3,55.6,62.1,44.3,-1.8,93,52,30,30.04,24.55,22,7,22,0.01
2013-6-5,68.9,60.8,49.2,56.7,47.4,39.7,98,63,44,30.14,24.77,128,4,128,10.24
2013-6-6,67.8,61.3,55.3,61.6,56.8,5.8,100,86,47,30.08,24.67,19,5,19,0.17
2013-6-7,67.8,61.9,59.1,67.1,61.9,58.8,100,100,99,29.93,28.79,21,4,21,0.10
2013-6-8,75.0,65.9,56.7,62.5,59.7,56.7,100,82,59,29.99,29.48,14,0,18,0.04
2013-6-9,80.3,70.0,59.4,63.3,56.7,0.0,94,65,41,30.11,24.72,11,0,11,0.02
2013-6-10,69.4,65.6,62.6,69.2,64.3,-16.2,100,96,80,30.09,24.79,16,0,16,0.02
2013-6-11,79.4,72.5,66.2,70.0,63.2,11.9,100,75,52,29.74,24.36,21,4,21,20.52
2013-6-12,78.4,69.7,61.8,57.8,52.9,0.0,80,56,36,29.79,26.74,127,8,127,0.02
2013-6-13,71.1,63.8,57.7,66.4,59.2,-8.7,100,86,57,29.78,24.48,68,6,68,10.25
2013-6-14,69.7,59.2,52.4,58.0,53.0,2.2,100,81,52,29.84,29.41,27,4,27,0.01
2013-6-15,79.0,67.2,57.0,57.8,52.8,4.6,96,64,33,29.96,24.55,127,2,127,0.65
2013-6-16,81.2,69.4,57.8,62.2,57.5,-32.0,95,68,43,29.95,29.18,21,3,21,0.18
2013-6-17,83.3,71.4,62.6,71.3,63.9,0.0,100,80,45,29.86,29.51,19,3,19,0.01
2013-6-18,77.0,66.1,61.8,67.8,63.9,10.8,100,93,68,29.84,29.05,18,3,18,1.28
2013-6-19,73.4,65.0,58.4,63.8,53.1,0.0,100,69,34,30.10,28.28,129,4,129,0.01
2013-6-20,75.8,65.4,53.5,58.7,51.9,-16.7,97,65,41,30.21,24.81,66,4,66,0.02
2013-6-21,78.8,67.1,56.0,55.8,51.9,45.5,91,61,39,30.25,24.90,17,4,17,0.00
2013-6-22,80.6,68.0,55.2,62.2,56.0,-4.3,98,68,39,30.20,30.07,16,4,16,0.32
2013-6-23,84.7,72.2,61.8,73.6,63.0,0.0,100,74,48,30.14,29.50,131,4,131,0.00
2013-6-24,87.9,75.9,69.5,74.5,66.8,41.5,100,76,43,30.09,29.49,129,3,129,0.09
2013-6-25,88.7,76.3,65.2,68.6,64.6,0.0,99,69,44,29.94,24.19,130,4,130,0.32
2013-6-26,87.0,76.4,68.6,71.7,63.5,11.2,100,67,39,29.81,24.46,127,4,132,0.00
2013-6-27,83.7,74.9,69.0,74.5,69.4,18.6,100,85,54,29.77,24.41,20,4,20,0.01
2013-6-28,84.1,75.4,69.2,71.6,66.8,-2.8,98,76,49,29.69,24.22,65,4,65,0.64
2013-6-29,82.4,73.4,65.4,70.2,66.5,0.0,100,81,49,29.65,24.92,64,3,64,0.00
2013-6-30,81.6,73.0,66.2,74.4,70.8,0.0,100,93,68,29.84,26.63,34,1,34,5.14
2013-7-1,80.4,73.2,70.4,76.4,71.9,18.8,100,96,71,29.98,24.54,127,1,127,0.07
2013-7-2,83.1,74.9,70.8,73.4,70.7,0.0,100,88,63,30.18,28.48,34,2,34,0.10
2013-7-3,82.1,74.5,68.0,76.1,71.5,18.5,100,91,71,30.19,24.87,32,1,32,0.66
2013-7-4,86.7,78.2,71.3,76.3,70.3,-11.1,100,79,48,30.19,29.50,14,0,14,0.18
2013-7-5,96.6,79.3,69.6,73.9,68.4,20.1,100,72,45,30.16,29.96,15,0,15,0.34
2013-7-6,90.2,81.1,71.9,74.9,69.0,0.0,99,70,45,30.09,24.23,16,0,16,0.00
2013-7-7,90.2,81.3,72.4,72.3,68.4,0.0,96,67,46,30.01,24.62,14,0,14,0.00
2013-7-8,85.1,75.0,67.7,68.7,65.7,-7.8,94,74,48,30.00,24.64,127,1,127,0.00
2013-7-9,84.5,76.5,66.7,71.0,66.7,-5.7,98,74,53,30.01,24.70,16,2,16,0.00
2013-7-10,84.4,78.2,70.8,73.4,69.8,64.9,96,77,55,29.96,24.48,127,2,127,0.02
2013-7-11,83.0,76.4,72.1,74.7,68.4,0.0,100,77,53,29.85,24.47,3,0,32,0.33
2013-7-12,73.9,69.9,65.6,70.0,64.6,11.1,100,85,66,30.00,24.56,32,1,32,3.86
2013-7-13,83.5,74.6,67.3,75.7,71.2,19.1,100,90,61,30.21,24.72,16,0,16,20.61
2013-7-14,87.0,78.5,71.0,75.4,70.1,65.4,100,78,51,30.27,29.43,4,0,127,2.57
2013-7-15,90.6,81.4,72.0,73.2,69.0,19.8,98,68,45,30.20,24.79,32,0,127,0.00
2013-7-16,89.7,80.5,71.5,74.2,65.4,43.0,98,63,35,30.13,24.79,16,1,16,1.28
2013-7-17,91.6,80.9,71.5,71.0,66.6,-7.3,95,64,37,30.12,24.80,10,1,10,0.00
2013-7-18,93.0,82.9,72.9,71.1,67.9,-7.3,86,62,40,30.05,28.50,10,0,10,0.04
2013-7-19,93.2,84.6,76.9,77.6,71.7,-2.7,96,67,44,29.92,29.00,127,1,127,0.04
2013-7-20,90.2,81.9,75.2,72.2,68.3,22.6,79,64,44,29.78,29.55,17,2,20,1.28
2013-7-21,82.4,75.0,70.4,73.5,67.4,31.0,100,79,46,29.88,26.85,10,1,10,0.02
2013-7-22,82.0,74.8,70.3,76.5,72.5,0.0,100,93,66,29.88,29.09,9,0,9,0.09
2013-7-23,94.3,75.5,68.1,74.7,70.5,33.8,100,86,56,29.83,28.95,12,0,12,0.13
2013-7-24,79.4,73.6,67.4,72.1,62.8,34.9,98,70,53,29.84,29.53,14,0,15,0.03
2013-7-25,68.4,64.0,62.3,58.6,54.2,-9.4,83,71,58,29.97,24.56,32,0,32,20.55
2013-7-26,78.9,68.9,11.8,64.8,58.8,-0.1,92,72,44,29.99,24.63,127,0,127,0.05
2013-7-27,80.0,70.5,61.5,67.5,62.0,0.0,100,77,45,30.00,24.69,127,0,127,0.00
2013-7-28,94.1,69.9,61.6,70.9,65.6,0.0,100,88,62,29.92,24.59,19,1,19,0.01
2013-7-29,81.7,72.5,64.8,69.5,60.8,4.5,100,71,34,30.04,29.88,17,0,17,0.01
2013-7-30,77.7,69.5,59.1,59.3,53.8,0.0,86,59,41,30.10,29.50,6,0,14,0.00
2013-7-31,96.2,69.3,9.9,61.9,57.4,-5.8,95,68,44,30.10,24.69,16,0,16,0.08
2013-8-1,71.4,67.7,65.3,68.8,64.8,-7.1,100,91,75,29.97,28.40,13,0,13,2.74
2013-8-2,81.5,72.6,65.0,68.3,62.1,14.9,100,73,44,29.87,24.46,64,0,64,0.82
2013-8-3,75.6,69.1,64.2,67.4,63.6,0.0,97,83,63,29.87,24.52,14,2,15,0.66
2013-8-4,75.8,69.0,61.9,65.6,56.1,3.2,100,67,40,29.91,24.50,23,4,23,0.98
2013-8-5,74.6,65.9,58.3,57.9,49.3,0.7,81,57,34,30.07,24.62,16,2,32,0.32
2013-8-6,76.7,67.2,52.1,61.5,54.7,0.0,97,68,38,30.05,24.69,17,2,17,10.24
2013-8-7,90.8,69.7,64.4,67.6,63.4,9.5,92,81,64,30.07,24.72,65,2,65,1.28
2013-8-8,81.2,73.3,68.4,74.5,69.9,0.0,100,90,68,30.00,24.68,15,4,15,0.27
2013-8-9,83.1,76.8,71.6,74.8,72.1,17.6,99,86,66,29.96,24.50,23,2,23,0.18
2013-8-10,80.3,74.1,67.6,74.4,64.5,13.0,100,75,48,30.07,24.59,64,0,64,0.02
2013-8-11,79.4,69.8,61.6,67.4,57.7,0.0,97,68,44,30.19,29.22,127,1,127,0.04
2013-8-12,76.9,70.3,65.1,70.7,67.6,14.2,100,92,68,29.97,24.58,32,0,32,0.04
2013-8-13,74.3,69.1,66.0,72.0,67.9,0.0,100,96,76,29.87,24.39,11,0,11,2.42
2013-8-14,71.0,65.4,59.1,68.8,50.7,-2.8,98,60,43,29.98,29.68,18,4,24,0.02
2013-8-15,74.3,64.3,55.0,54.2,49.2,-25.4,81,60,34,30.09,24.71,132,4,132,0.02
2013-8-16,75.8,65.4,54.7,58.4,52.4,4.4,96,67,36,30.14,24.78,18,2,18,2.58
2013-8-17,68.8,58.4,52.2,61.8,56.4,4.5,99,93,65,30.20,24.85,4,0,4,0.07
2013-8-19,74.1,73.9,73.9,58.7,58.7,58.3,59,59,59,29.98,29.98,6,1,6,0.00
2013-11-9,50.3,46.1,41.9,34.0,28.4,23.3,70,51,39,30.22,29.95,0,0,0,0.00
2013-11-10,59.9,48.5,39.0,35.6,31.1,25.4,75,53,35,30.03,29.77,0,0,0,0.00
2013-11-11,53.2,47.0,38.9,34.9,28.3,23.6,57,48,36,30.18,29.92,0,0,0,0.00
2013-11-12,50.6,37.2,28.3,36.1,25.4,16.2,99,63,48,30.25,29.88,0,0,0,0.00
2013-11-13,38.0,30.9,25.1,19.1,15.7,9.2,68,54,33,30.32,30.23,0,0,0,0.00
2013-11-14,53.4,40.4,27.9,22.1,16.6,8.2,71,42,17,30.25,30.12,0,0,0,0.00
2013-11-15,58.3,44.5,33.3,33.1,28.9,21.2,82,57,27,30.21,30.10,0,0,0,0.00
2013-11-16,54.3,45.9,40.1,47.5,41.2,30.5,100,84,66,30.28,30.18,0,0,0,0.04
2013-11-17,64.9,55.5,44.3,61.7,55.1,44.3,100,99,81,30.21,29.74,0,0,0,0.00
2013-11-18,64.6,60.7,56.0,63.6,42.3,25.1,100,57,24,29.74,29.57,0,0,0,0.03